sensor_id;sensor_type;location;lat;lon;timestamp;temperature;humidity
37844;DHT22;63793;57.632;18.292;2024-02-26T00:02:10;2.70;99.90
37844;DHT22;63793;57.632;18.292;2024-02-26T00:04:37;2.70;99.90
37844;DHT22;63793;57.632;18.292;2024-02-26T00:07:03;2.70;99.90
37844;DHT22;63793;57.632;18.292;2024-02-26T00:09:30;2.60;99.90
37844;DHT22;63793;57.632;18.292;2024-02-26T00:11:57;2.70;99.90
37844;DHT22;63793;57.632;18.292;2024-02-26T00:14:26;2.60;99.90
37844;DHT22;63793;57.632;18.292;2024-02-26T00:16:53;2.60;99.90
37844;DHT22;63793;57.632;18.292;2024-02-26T00:19:19;2.60;99.90
37844;DHT22;63793;57.632;18.292;2024-02-26T00:21:47;2.70;99.90
37844;DHT22;63793;57.632;18.292;2024-02-26T00:24:14;2.60;99.90
37844;DHT22;63793;57.632;18.292;2024-02-26T00:26:41;2.70;99.90
37844;DHT22;63793;57.632;18.292;2024-02-26T00:29:08;2.70;99.90
37844;DHT22;63793;57.632;18.292;2024-02-26T00:31:36;2.70;99.90
37844;DHT22;63793;57.632;18.292;2024-02-26T00:34:04;2.70;99.90
37844;DHT22;63793;57.632;18.292;2024-02-26T00:36:31;2.70;99.90
37844;DHT22;63793;57.632;18.292;2024-02-26T00:38:58;2.70;99.90
37844;DHT22;63793;57.632;18.292;2024-02-26T00:41:25;2.70;99.90
37844;DHT22;63793;57.632;18.292;2024-02-26T00:43:52;2.60;99.90
37844;DHT22;63793;57.632;18.292;2024-02-26T00:46:19;2.60;99.90
37844;DHT22;63793;57.632;18.292;2024-02-26T00:48:46;2.60;99.90
37844;DHT22;63793;57.632;18.292;2024-02-26T00:51:13;2.60;99.90
37844;DHT22;63793;57.632;18.292;2024-02-26T00:53:40;2.60;99.90
37844;DHT22;63793;57.632;18.292;2024-02-26T00:56:07;2.60;99.90
37844;DHT22;63793;57.632;18.292;2024-02-26T00:58:34;2.60;99.90
37844;DHT22;63793;57.632;18.292;2024-02-26T01:01:01;2.60;99.90
37844;DHT22;63793;57.632;18.292;2024-02-26T01:03:28;2.60;99.90
37844;DHT22;63793;57.632;18.292;2024-02-26T01:05:55;2.50;99.90
37844;DHT22;63793;57.632;18.292;2024-02-26T01:08:25;2.60;99.90
37844;DHT22;63793;57.632;18.292;2024-02-26T01:10:52;2.60;99.90
37844;DHT22;63793;57.632;18.292;2024-02-26T01:13:19;2.50;99.90
37844;DHT22;63793;57.632;18.292;2024-02-26T01:15:46;2.60;99.90
37844;DHT22;63793;57.632;18.292;2024-02-26T01:18:13;2.60;99.90
37844;DHT22;63793;57.632;18.292;2024-02-26T01:20:40;2.60;99.90
37844;DHT22;63793;57.632;18.292;2024-02-26T01:23:07;2.60;99.90
37844;DHT22;63793;57.632;18.292;2024-02-26T01:25:34;2.60;99.90
37844;DHT22;63793;57.632;18.292;2024-02-26T01:28:01;2.60;99.90
37844;DHT22;63793;57.632;18.292;2024-02-26T01:30:28;2.60;99.90
37844;DHT22;63793;57.632;18.292;2024-02-26T01:32:54;2.60;99.90
37844;DHT22;63793;57.632;18.292;2024-02-26T01:35:22;2.70;99.90
37844;DHT22;63793;57.632;18.292;2024-02-26T01:37:49;2.60;99.90
37844;DHT22;63793;57.632;18.292;2024-02-26T01:40:16;2.60;99.90
37844;DHT22;63793;57.632;18.292;2024-02-26T01:42:46;2.60;99.90
37844;DHT22;63793;57.632;18.292;2024-02-26T01:45:16;2.60;99.90
37844;DHT22;63793;57.632;18.292;2024-02-26T01:47:52;2.60;99.90
37844;DHT22;63793;57.632;18.292;2024-02-26T01:50:20;2.60;99.90
37844;DHT22;63793;57.632;18.292;2024-02-26T01:52:50;2.60;99.90
37844;DHT22;63793;57.632;18.292;2024-02-26T01:55:20;2.60;99.90
37844;DHT22;63793;57.632;18.292;2024-02-26T01:57:50;2.60;99.90
37844;DHT22;63793;57.632;18.292;2024-02-26T02:00:20;2.60;99.90
37844;DHT22;63793;57.632;18.292;2024-02-26T02:02:49;2.60;99.90
37844;DHT22;63793;57.632;18.292;2024-02-26T02:05:17;2.60;99.90
37844;DHT22;63793;57.632;18.292;2024-02-26T02:07:44;2.60;99.90
37844;DHT22;63793;57.632;18.292;2024-02-26T02:10:12;2.60;99.90
37844;DHT22;63793;57.632;18.292;2024-02-26T02:12:39;2.60;99.90
37844;DHT22;63793;57.632;18.292;2024-02-26T02:15:07;2.60;99.90
37844;DHT22;63793;57.632;18.292;2024-02-26T02:17:34;2.50;99.90
37844;DHT22;63793;57.632;18.292;2024-02-26T02:20:02;2.60;99.90
37844;DHT22;63793;57.632;18.292;2024-02-26T02:22:30;2.60;99.90
37844;DHT22;63793;57.632;18.292;2024-02-26T02:24:59;2.60;99.90
37844;DHT22;63793;57.632;18.292;2024-02-26T02:27:28;2.50;99.90
37844;DHT22;63793;57.632;18.292;2024-02-26T02:29:55;2.50;99.90
37844;DHT22;63793;57.632;18.292;2024-02-26T02:32:24;2.50;99.90
37844;DHT22;63793;57.632;18.292;2024-02-26T02:34:51;2.50;99.90
37844;DHT22;63793;57.632;18.292;2024-02-26T02:37:19;2.50;99.90
37844;DHT22;63793;57.632;18.292;2024-02-26T02:39:45;2.50;99.90
37844;DHT22;63793;57.632;18.292;2024-02-26T02:42:13;2.50;99.90
37844;DHT22;63793;57.632;18.292;2024-02-26T02:44:40;2.50;99.90
37844;DHT22;63793;57.632;18.292;2024-02-26T02:47:07;2.50;99.90
37844;DHT22;63793;57.632;18.292;2024-02-26T02:49:34;2.50;99.90
37844;DHT22;63793;57.632;18.292;2024-02-26T02:52:01;2.50;99.90
37844;DHT22;63793;57.632;18.292;2024-02-26T02:54:28;2.50;99.90
37844;DHT22;63793;57.632;18.292;2024-02-26T02:56:55;2.50;99.90
37844;DHT22;63793;57.632;18.292;2024-02-26T02:59:22;2.50;99.90
37844;DHT22;63793;57.632;18.292;2024-02-26T03:01:49;2.50;99.90
37844;DHT22;63793;57.632;18.292;2024-02-26T03:04:16;2.50;99.90
37844;DHT22;63793;57.632;18.292;2024-02-26T03:06:43;2.50;99.90
37844;DHT22;63793;57.632;18.292;2024-02-26T03:09:10;2.50;99.90
37844;DHT22;63793;57.632;18.292;2024-02-26T03:11:37;2.50;99.90
37844;DHT22;63793;57.632;18.292;2024-02-26T03:14:04;2.50;99.90
37844;DHT22;63793;57.632;18.292;2024-02-26T03:16:32;2.50;99.90
37844;DHT22;63793;57.632;18.292;2024-02-26T03:18:59;2.50;99.90
37844;DHT22;63793;57.632;18.292;2024-02-26T03:21:27;2.50;99.90
37844;DHT22;63793;57.632;18.292;2024-02-26T03:23:54;2.50;99.90
37844;DHT22;63793;57.632;18.292;2024-02-26T03:26:21;2.50;99.90
37844;DHT22;63793;57.632;18.292;2024-02-26T03:28:48;2.50;99.90
37844;DHT22;63793;57.632;18.292;2024-02-26T03:31:15;2.40;99.90
37844;DHT22;63793;57.632;18.292;2024-02-26T03:33:42;2.40;99.90
37844;DHT22;63793;57.632;18.292;2024-02-26T03:36:09;2.40;99.90
37844;DHT22;63793;57.632;18.292;2024-02-26T03:38:37;2.30;99.90
37844;DHT22;63793;57.632;18.292;2024-02-26T03:41:04;2.30;99.90
37844;DHT22;63793;57.632;18.292;2024-02-26T03:43:31;2.20;99.90
37844;DHT22;63793;57.632;18.292;2024-02-26T03:45:58;2.20;99.90
37844;DHT22;63793;57.632;18.292;2024-02-26T03:48:25;2.10;99.90
37844;DHT22;63793;57.632;18.292;2024-02-26T03:50:52;2.00;99.90
37844;DHT22;63793;57.632;18.292;2024-02-26T03:53:19;2.00;99.90
37844;DHT22;63793;57.632;18.292;2024-02-26T03:55:46;2.00;99.90
37844;DHT22;63793;57.632;18.292;2024-02-26T03:58:13;1.90;99.90
37844;DHT22;63793;57.632;18.292;2024-02-26T04:00:42;1.90;99.90
37844;DHT22;63793;57.632;18.292;2024-02-26T04:03:10;1.90;99.90
37844;DHT22;63793;57.632;18.292;2024-02-26T04:05:37;1.90;99.90
37844;DHT22;63793;57.632;18.292;2024-02-26T04:08:05;1.80;99.90
37844;DHT22;63793;57.632;18.292;2024-02-26T04:10:34;1.80;99.90
37844;DHT22;63793;57.632;18.292;2024-02-26T04:13:07;1.80;99.90
37844;DHT22;63793;57.632;18.292;2024-02-26T04:15:35;1.70;99.90
37844;DHT22;63793;57.632;18.292;2024-02-26T04:18:02;1.70;99.90
37844;DHT22;63793;57.632;18.292;2024-02-26T04:20:29;1.60;99.90
37844;DHT22;63793;57.632;18.292;2024-02-26T04:22:56;1.60;99.90
37844;DHT22;63793;57.632;18.292;2024-02-26T04:25:23;1.50;99.90
37844;DHT22;63793;57.632;18.292;2024-02-26T04:27:50;1.50;99.90
37844;DHT22;63793;57.632;18.292;2024-02-26T04:30:17;1.50;99.90
37844;DHT22;63793;57.632;18.292;2024-02-26T04:32:44;1.40;99.90
37844;DHT22;63793;57.632;18.292;2024-02-26T04:35:11;1.40;99.90
37844;DHT22;63793;57.632;18.292;2024-02-26T04:37:38;1.40;99.90
37844;DHT22;63793;57.632;18.292;2024-02-26T04:40:06;1.30;99.90
37844;DHT22;63793;57.632;18.292;2024-02-26T04:42:33;1.20;99.90
37844;DHT22;63793;57.632;18.292;2024-02-26T04:45:00;1.20;99.90
37844;DHT22;63793;57.632;18.292;2024-02-26T04:47:27;1.20;99.90
37844;DHT22;63793;57.632;18.292;2024-02-26T04:49:54;1.20;99.90
37844;DHT22;63793;57.632;18.292;2024-02-26T04:52:21;1.20;99.90
37844;DHT22;63793;57.632;18.292;2024-02-26T04:54:48;1.10;99.90
37844;DHT22;63793;57.632;18.292;2024-02-26T04:57:15;1.10;99.90
37844;DHT22;63793;57.632;18.292;2024-02-26T04:59:45;1.10;99.90
37844;DHT22;63793;57.632;18.292;2024-02-26T05:02:13;1.10;99.90
37844;DHT22;63793;57.632;18.292;2024-02-26T05:04:40;1.00;99.90
37844;DHT22;63793;57.632;18.292;2024-02-26T05:07:07;1.00;99.90
37844;DHT22;63793;57.632;18.292;2024-02-26T05:09:35;1.00;99.90
37844;DHT22;63793;57.632;18.292;2024-02-26T05:12:02;1.00;99.90
37844;DHT22;63793;57.632;18.292;2024-02-26T05:14:29;1.00;99.90
37844;DHT22;63793;57.632;18.292;2024-02-26T05:16:56;1.00;99.90
37844;DHT22;63793;57.632;18.292;2024-02-26T05:19:23;1.00;99.90
37844;DHT22;63793;57.632;18.292;2024-02-26T05:21:50;1.00;99.90
37844;DHT22;63793;57.632;18.292;2024-02-26T05:24:17;0.90;99.90
37844;DHT22;63793;57.632;18.292;2024-02-26T05:26:45;0.90;99.90
37844;DHT22;63793;57.632;18.292;2024-02-26T05:29:12;0.90;99.90
37844;DHT22;63793;57.632;18.292;2024-02-26T05:31:42;0.90;99.90
37844;DHT22;63793;57.632;18.292;2024-02-26T05:34:09;0.80;99.90
37844;DHT22;63793;57.632;18.292;2024-02-26T05:36:36;0.80;99.90
37844;DHT22;63793;57.632;18.292;2024-02-26T05:39:03;0.80;99.90
37844;DHT22;63793;57.632;18.292;2024-02-26T05:41:37;0.80;99.90
37844;DHT22;63793;57.632;18.292;2024-02-26T05:44:04;0.80;99.90
37844;DHT22;63793;57.632;18.292;2024-02-26T05:46:31;0.80;99.90
37844;DHT22;63793;57.632;18.292;2024-02-26T05:48:58;0.70;99.90
37844;DHT22;63793;57.632;18.292;2024-02-26T05:51:25;0.70;99.90
37844;DHT22;63793;57.632;18.292;2024-02-26T05:53:52;0.70;99.90
37844;DHT22;63793;57.632;18.292;2024-02-26T05:56:22;0.70;99.90
37844;DHT22;63793;57.632;18.292;2024-02-26T05:58:49;0.70;99.90
37844;DHT22;63793;57.632;18.292;2024-02-26T06:01:17;0.70;99.90
37844;DHT22;63793;57.632;18.292;2024-02-26T06:03:44;0.70;99.90
37844;DHT22;63793;57.632;18.292;2024-02-26T06:06:11;0.80;99.90
37844;DHT22;63793;57.632;18.292;2024-02-26T06:08:39;0.80;99.90
37844;DHT22;63793;57.632;18.292;2024-02-26T06:11:07;0.80;99.90
37844;DHT22;63793;57.632;18.292;2024-02-26T06:13:34;0.80;99.90
37844;DHT22;63793;57.632;18.292;2024-02-26T06:16:01;0.70;99.90
37844;DHT22;63793;57.632;18.292;2024-02-26T06:18:29;0.80;99.90
37844;DHT22;63793;57.632;18.292;2024-02-26T06:20:56;0.70;99.90
37844;DHT22;63793;57.632;18.292;2024-02-26T06:23:23;0.80;99.90
37844;DHT22;63793;57.632;18.292;2024-02-26T06:25:50;0.70;99.90
37844;DHT22;63793;57.632;18.292;2024-02-26T06:28:17;0.70;99.90
37844;DHT22;63793;57.632;18.292;2024-02-26T06:30:44;0.70;99.90
37844;DHT22;63793;57.632;18.292;2024-02-26T06:33:12;0.80;99.90
37844;DHT22;63793;57.632;18.292;2024-02-26T06:35:39;0.80;99.90
37844;DHT22;63793;57.632;18.292;2024-02-26T06:38:06;0.80;99.90
37844;DHT22;63793;57.632;18.292;2024-02-26T06:40:34;0.80;99.90
37844;DHT22;63793;57.632;18.292;2024-02-26T06:43:01;0.80;99.90
37844;DHT22;63793;57.632;18.292;2024-02-26T06:45:28;0.80;99.90
37844;DHT22;63793;57.632;18.292;2024-02-26T06:47:55;0.80;99.90
37844;DHT22;63793;57.632;18.292;2024-02-26T06:50:23;0.70;99.90
37844;DHT22;63793;57.632;18.292;2024-02-26T06:52:50;0.80;99.90
37844;DHT22;63793;57.632;18.292;2024-02-26T06:55:17;0.80;99.90
37844;DHT22;63793;57.632;18.292;2024-02-26T06:57:44;0.90;99.90
37844;DHT22;63793;57.632;18.292;2024-02-26T07:00:11;0.90;99.90
37844;DHT22;63793;57.632;18.292;2024-02-26T07:02:43;0.90;99.90
37844;DHT22;63793;57.632;18.292;2024-02-26T07:05:10;1.00;99.90
37844;DHT22;63793;57.632;18.292;2024-02-26T07:07:38;1.00;99.90
37844;DHT22;63793;57.632;18.292;2024-02-26T07:10:05;1.00;99.90
37844;DHT22;63793;57.632;18.292;2024-02-26T07:12:33;1.00;99.90
37844;DHT22;63793;57.632;18.292;2024-02-26T07:15:00;1.10;99.90
37844;DHT22;63793;57.632;18.292;2024-02-26T07:17:28;1.10;99.90
37844;DHT22;63793;57.632;18.292;2024-02-26T07:19:55;1.10;99.90
37844;DHT22;63793;57.632;18.292;2024-02-26T07:22:23;1.10;99.90
37844;DHT22;63793;57.632;18.292;2024-02-26T07:24:51;1.00;99.90
37844;DHT22;63793;57.632;18.292;2024-02-26T07:27:18;1.10;99.90
37844;DHT22;63793;57.632;18.292;2024-02-26T07:29:46;1.10;99.90
37844;DHT22;63793;57.632;18.292;2024-02-26T07:32:13;1.10;99.90
37844;DHT22;63793;57.632;18.292;2024-02-26T07:34:40;1.10;99.90
37844;DHT22;63793;57.632;18.292;2024-02-26T07:37:12;1.20;99.90
37844;DHT22;63793;57.632;18.292;2024-02-26T07:39:38;1.20;99.90
37844;DHT22;63793;57.632;18.292;2024-02-26T07:42:06;1.30;99.90
37844;DHT22;63793;57.632;18.292;2024-02-26T07:44:33;1.40;99.90
37844;DHT22;63793;57.632;18.292;2024-02-26T07:47:00;1.40;99.90
37844;DHT22;63793;57.632;18.292;2024-02-26T07:49:27;1.50;99.90
37844;DHT22;63793;57.632;18.292;2024-02-26T07:51:54;1.60;99.90
37844;DHT22;63793;57.632;18.292;2024-02-26T07:54:24;1.60;99.90
37844;DHT22;63793;57.632;18.292;2024-02-26T07:56:51;1.70;99.90
37844;DHT22;63793;57.632;18.292;2024-02-26T07:59:19;1.70;99.90
37844;DHT22;63793;57.632;18.292;2024-02-26T08:01:50;1.80;99.90
37844;DHT22;63793;57.632;18.292;2024-02-26T08:04:23;1.90;99.90
37844;DHT22;63793;57.632;18.292;2024-02-26T08:06:50;1.90;99.90
37844;DHT22;63793;57.632;18.292;2024-02-26T08:09:17;2.00;99.90
37844;DHT22;63793;57.632;18.292;2024-02-26T08:11:44;2.00;99.90
37844;DHT22;63793;57.632;18.292;2024-02-26T08:14:11;2.10;99.90
37844;DHT22;63793;57.632;18.292;2024-02-26T08:16:38;2.20;99.90
37844;DHT22;63793;57.632;18.292;2024-02-26T08:19:05;2.20;99.90
37844;DHT22;63793;57.632;18.292;2024-02-26T08:21:32;2.30;99.90
37844;DHT22;63793;57.632;18.292;2024-02-26T08:23:59;2.40;99.90
37844;DHT22;63793;57.632;18.292;2024-02-26T08:26:26;2.40;99.90
37844;DHT22;63793;57.632;18.292;2024-02-26T08:28:53;2.40;99.90
37844;DHT22;63793;57.632;18.292;2024-02-26T08:31:22;2.50;99.90
37844;DHT22;63793;57.632;18.292;2024-02-26T08:33:50;2.60;99.90
37844;DHT22;63793;57.632;18.292;2024-02-26T08:36:17;2.60;99.90
37844;DHT22;63793;57.632;18.292;2024-02-26T08:38:44;2.70;99.90
37844;DHT22;63793;57.632;18.292;2024-02-26T08:41:11;2.70;99.90
37844;DHT22;63793;57.632;18.292;2024-02-26T08:43:39;2.80;99.90
37844;DHT22;63793;57.632;18.292;2024-02-26T08:46:09;2.90;99.90
37844;DHT22;63793;57.632;18.292;2024-02-26T08:48:37;3.00;99.90
37844;DHT22;63793;57.632;18.292;2024-02-26T08:51:06;3.00;99.90
37844;DHT22;63793;57.632;18.292;2024-02-26T08:53:37;3.10;99.90
37844;DHT22;63793;57.632;18.292;2024-02-26T08:56:10;3.10;99.90
37844;DHT22;63793;57.632;18.292;2024-02-26T08:58:43;3.20;99.90
37844;DHT22;63793;57.632;18.292;2024-02-26T09:01:10;3.30;99.90
37844;DHT22;63793;57.632;18.292;2024-02-26T09:03:38;3.30;99.90
37844;DHT22;63793;57.632;18.292;2024-02-26T09:06:05;3.30;99.90
37844;DHT22;63793;57.632;18.292;2024-02-26T09:08:33;3.40;99.90
37844;DHT22;63793;57.632;18.292;2024-02-26T09:11:03;3.40;99.90
37844;DHT22;63793;57.632;18.292;2024-02-26T09:13:30;3.50;99.90
37844;DHT22;63793;57.632;18.292;2024-02-26T09:15:57;3.60;99.90
37844;DHT22;63793;57.632;18.292;2024-02-26T09:18:25;3.70;99.90
37844;DHT22;63793;57.632;18.292;2024-02-26T09:20:52;3.80;99.90
37844;DHT22;63793;57.632;18.292;2024-02-26T09:23:19;3.90;99.90
37844;DHT22;63793;57.632;18.292;2024-02-26T09:25:46;4.00;99.90
37844;DHT22;63793;57.632;18.292;2024-02-26T09:28:13;4.10;99.90
37844;DHT22;63793;57.632;18.292;2024-02-26T09:30:43;4.20;99.90
37844;DHT22;63793;57.632;18.292;2024-02-26T09:33:10;4.30;99.90
37844;DHT22;63793;57.632;18.292;2024-02-26T09:35:37;4.40;99.90
37844;DHT22;63793;57.632;18.292;2024-02-26T09:38:04;4.40;99.90
37844;DHT22;63793;57.632;18.292;2024-02-26T09:40:34;4.50;99.90
37844;DHT22;63793;57.632;18.292;2024-02-26T09:43:01;4.50;99.90
37844;DHT22;63793;57.632;18.292;2024-02-26T09:45:32;4.70;99.90
37844;DHT22;63793;57.632;18.292;2024-02-26T09:48:00;4.60;99.90
37844;DHT22;63793;57.632;18.292;2024-02-26T09:50:31;4.60;99.90
37844;DHT22;63793;57.632;18.292;2024-02-26T09:52:58;4.70;99.90
37844;DHT22;63793;57.632;18.292;2024-02-26T09:55:26;4.70;99.90
37844;DHT22;63793;57.632;18.292;2024-02-26T09:57:54;4.80;99.90
37844;DHT22;63793;57.632;18.292;2024-02-26T10:00:23;4.80;99.90
37844;DHT22;63793;57.632;18.292;2024-02-26T10:02:51;4.80;99.90
37844;DHT22;63793;57.632;18.292;2024-02-26T10:05:19;4.60;99.90
37844;DHT22;63793;57.632;18.292;2024-02-26T10:07:46;4.50;99.90
37844;DHT22;63793;57.632;18.292;2024-02-26T10:10:14;4.20;99.90
37844;DHT22;63793;57.632;18.292;2024-02-26T10:12:41;4.10;99.90
37844;DHT22;63793;57.632;18.292;2024-02-26T10:15:08;4.00;99.90
37844;DHT22;63793;57.632;18.292;2024-02-26T10:17:35;4.00;99.90
37844;DHT22;63793;57.632;18.292;2024-02-26T10:20:16;3.90;99.90
37844;DHT22;63793;57.632;18.292;2024-02-26T10:22:44;3.70;99.90
37844;DHT22;63793;57.632;18.292;2024-02-26T10:25:12;3.70;99.90
37844;DHT22;63793;57.632;18.292;2024-02-26T10:27:40;3.60;99.90
37844;DHT22;63793;57.632;18.292;2024-02-26T10:30:21;3.50;99.90
37844;DHT22;63793;57.632;18.292;2024-02-26T10:32:50;3.40;99.90
37844;DHT22;63793;57.632;18.292;2024-02-26T10:35:18;3.40;99.90
37844;DHT22;63793;57.632;18.292;2024-02-26T10:37:50;3.30;99.90
37844;DHT22;63793;57.632;18.292;2024-02-26T10:40:17;3.30;99.90
37844;DHT22;63793;57.632;18.292;2024-02-26T10:42:44;3.30;99.90
37844;DHT22;63793;57.632;18.292;2024-02-26T10:45:12;3.20;99.90
37844;DHT22;63793;57.632;18.292;2024-02-26T10:47:40;3.00;99.90
37844;DHT22;63793;57.632;18.292;2024-02-26T10:50:09;3.10;99.90
37844;DHT22;63793;57.632;18.292;2024-02-26T10:52:36;3.00;99.90
37844;DHT22;63793;57.632;18.292;2024-02-26T10:55:05;3.10;99.90
37844;DHT22;63793;57.632;18.292;2024-02-26T10:57:36;3.20;99.90
37844;DHT22;63793;57.632;18.292;2024-02-26T11:00:07;3.10;99.90
37844;DHT22;63793;57.632;18.292;2024-02-26T11:02:38;3.10;99.90
37844;DHT22;63793;57.632;18.292;2024-02-26T11:05:06;3.00;99.90
37844;DHT22;63793;57.632;18.292;2024-02-26T11:07:36;2.80;99.90
37844;DHT22;63793;57.632;18.292;2024-02-26T11:10:05;2.80;99.90
37844;DHT22;63793;57.632;18.292;2024-02-26T11:12:35;2.90;99.90
37844;DHT22;63793;57.632;18.292;2024-02-26T11:15:05;2.90;99.90
37844;DHT22;63793;57.632;18.292;2024-02-26T11:17:32;2.90;99.90
37844;DHT22;63793;57.632;18.292;2024-02-26T11:20:01;2.90;99.90
37844;DHT22;63793;57.632;18.292;2024-02-26T11:22:29;2.90;99.90
37844;DHT22;63793;57.632;18.292;2024-02-26T11:24:57;2.80;99.90
37844;DHT22;63793;57.632;18.292;2024-02-26T11:27:28;2.90;99.90
37844;DHT22;63793;57.632;18.292;2024-02-26T11:29:58;2.90;99.90
37844;DHT22;63793;57.632;18.292;2024-02-26T11:32:28;3.10;99.90
37844;DHT22;63793;57.632;18.292;2024-02-26T11:34:58;3.20;99.90
37844;DHT22;63793;57.632;18.292;2024-02-26T11:37:25;3.20;99.90
37844;DHT22;63793;57.632;18.292;2024-02-26T11:39:52;3.30;99.90
37844;DHT22;63793;57.632;18.292;2024-02-26T11:42:23;3.30;99.90
37844;DHT22;63793;57.632;18.292;2024-02-26T11:44:55;3.40;99.90
37844;DHT22;63793;57.632;18.292;2024-02-26T11:47:28;3.50;99.90
37844;DHT22;63793;57.632;18.292;2024-02-26T11:49:55;3.60;99.90
37844;DHT22;63793;57.632;18.292;2024-02-26T11:52:22;3.60;99.90
37844;DHT22;63793;57.632;18.292;2024-02-26T11:57:39;3.90;99.90
37844;DHT22;63793;57.632;18.292;2024-02-26T12:02:55;4.10;99.90
37844;DHT22;63793;57.632;18.292;2024-02-26T12:05:26;4.10;99.90
37844;DHT22;63793;57.632;18.292;2024-02-26T12:08:04;4.20;99.90
37844;DHT22;63793;57.632;18.292;2024-02-26T12:10:39;4.20;99.90
37844;DHT22;63793;57.632;18.292;2024-02-26T12:13:12;4.30;99.90
37844;DHT22;63793;57.632;18.292;2024-02-26T12:15:55;4.50;99.90
37844;DHT22;63793;57.632;18.292;2024-02-26T12:18:23;4.50;99.90
37844;DHT22;63793;57.632;18.292;2024-02-26T12:21:03;4.60;99.90
37844;DHT22;63793;57.632;18.292;2024-02-26T12:23:31;4.70;99.90
37844;DHT22;63793;57.632;18.292;2024-02-26T12:26:01;4.70;99.90
37844;DHT22;63793;57.632;18.292;2024-02-26T12:28:33;4.70;99.90
37844;DHT22;63793;57.632;18.292;2024-02-26T12:31:00;4.70;99.90
37844;DHT22;63793;57.632;18.292;2024-02-26T12:33:28;4.70;99.90
37844;DHT22;63793;57.632;18.292;2024-02-26T12:35:56;4.70;99.90
37844;DHT22;63793;57.632;18.292;2024-02-26T12:38:24;4.70;99.90
37844;DHT22;63793;57.632;18.292;2024-02-26T12:40:51;4.70;99.90
37844;DHT22;63793;57.632;18.292;2024-02-26T12:43:18;4.60;99.90
37844;DHT22;63793;57.632;18.292;2024-02-26T12:45:45;4.60;99.90
37844;DHT22;63793;57.632;18.292;2024-02-26T12:48:14;4.50;99.90
37844;DHT22;63793;57.632;18.292;2024-02-26T12:50:45;4.40;99.90
37844;DHT22;63793;57.632;18.292;2024-02-26T12:53:14;4.40;99.90
37844;DHT22;63793;57.632;18.292;2024-02-26T12:55:41;4.30;99.90
37844;DHT22;63793;57.632;18.292;2024-02-26T12:58:09;4.30;99.90
37844;DHT22;63793;57.632;18.292;2024-02-26T13:00:36;4.40;99.90
37844;DHT22;63793;57.632;18.292;2024-02-26T13:03:03;4.40;99.90
37844;DHT22;63793;57.632;18.292;2024-02-26T13:05:31;4.40;99.90
37844;DHT22;63793;57.632;18.292;2024-02-26T13:07:58;4.40;99.90
37844;DHT22;63793;57.632;18.292;2024-02-26T13:10:25;4.50;99.90
37844;DHT22;63793;57.632;18.292;2024-02-26T13:12:52;4.40;99.90
37844;DHT22;63793;57.632;18.292;2024-02-26T13:15:21;4.40;99.90
37844;DHT22;63793;57.632;18.292;2024-02-26T13:17:49;4.40;99.90
37844;DHT22;63793;57.632;18.292;2024-02-26T13:20:27;4.40;99.90
37844;DHT22;63793;57.632;18.292;2024-02-26T13:23:05;4.40;99.90
37844;DHT22;63793;57.632;18.292;2024-02-26T13:25:34;4.50;99.90
37844;DHT22;63793;57.632;18.292;2024-02-26T13:28:16;4.70;99.90
37844;DHT22;63793;57.632;18.292;2024-02-26T13:30:54;4.70;99.90
37844;DHT22;63793;57.632;18.292;2024-02-26T13:33:26;4.80;99.90
37844;DHT22;63793;57.632;18.292;2024-02-26T13:35:55;4.90;99.90
37844;DHT22;63793;57.632;18.292;2024-02-26T13:38:22;4.80;99.90
37844;DHT22;63793;57.632;18.292;2024-02-26T13:40:50;4.80;99.90
37844;DHT22;63793;57.632;18.292;2024-02-26T13:43:18;4.80;99.90
37844;DHT22;63793;57.632;18.292;2024-02-26T13:45:46;4.80;99.90
37844;DHT22;63793;57.632;18.292;2024-02-26T13:48:13;4.80;99.90
37844;DHT22;63793;57.632;18.292;2024-02-26T13:50:42;4.80;99.90
37844;DHT22;63793;57.632;18.292;2024-02-26T13:53:13;4.80;99.90
37844;DHT22;63793;57.632;18.292;2024-02-26T13:55:41;4.90;99.90
37844;DHT22;63793;57.632;18.292;2024-02-26T13:58:12;4.90;99.90
37844;DHT22;63793;57.632;18.292;2024-02-26T14:00:40;4.90;99.90
37844;DHT22;63793;57.632;18.292;2024-02-26T14:03:09;4.90;99.90
37844;DHT22;63793;57.632;18.292;2024-02-26T14:05:36;4.90;99.90
37844;DHT22;63793;57.632;18.292;2024-02-26T14:08:03;4.90;99.90
37844;DHT22;63793;57.632;18.292;2024-02-26T14:10:31;5.00;99.90
37844;DHT22;63793;57.632;18.292;2024-02-26T14:12:59;5.00;99.90
37844;DHT22;63793;57.632;18.292;2024-02-26T14:15:27;5.10;99.90
37844;DHT22;63793;57.632;18.292;2024-02-26T14:17:56;5.20;99.90
37844;DHT22;63793;57.632;18.292;2024-02-26T14:20:24;5.20;99.90
37844;DHT22;63793;57.632;18.292;2024-02-26T14:22:52;5.20;99.90
37844;DHT22;63793;57.632;18.292;2024-02-26T14:25:23;5.30;99.90
37844;DHT22;63793;57.632;18.292;2024-02-26T14:27:54;5.30;99.90
37844;DHT22;63793;57.632;18.292;2024-02-26T14:30:21;5.40;99.90
37844;DHT22;63793;57.632;18.292;2024-02-26T14:32:48;5.40;99.90
37844;DHT22;63793;57.632;18.292;2024-02-26T14:35:15;5.40;99.90
37844;DHT22;63793;57.632;18.292;2024-02-26T14:37:44;5.40;99.90
37844;DHT22;63793;57.632;18.292;2024-02-26T14:40:16;5.40;99.90
37844;DHT22;63793;57.632;18.292;2024-02-26T14:42:43;5.40;99.90
37844;DHT22;63793;57.632;18.292;2024-02-26T14:45:11;5.50;99.90
37844;DHT22;63793;57.632;18.292;2024-02-26T14:47:38;5.40;99.90
37844;DHT22;63793;57.632;18.292;2024-02-26T14:50:06;5.40;99.90
37844;DHT22;63793;57.632;18.292;2024-02-26T14:52:33;5.40;99.90
37844;DHT22;63793;57.632;18.292;2024-02-26T14:55:00;5.30;99.90
37844;DHT22;63793;57.632;18.292;2024-02-26T14:57:27;5.30;99.90
37844;DHT22;63793;57.632;18.292;2024-02-26T14:59:54;5.30;99.90
37844;DHT22;63793;57.632;18.292;2024-02-26T15:02:22;5.20;99.90
37844;DHT22;63793;57.632;18.292;2024-02-26T15:04:49;5.20;99.90
37844;DHT22;63793;57.632;18.292;2024-02-26T15:07:16;5.20;99.90
37844;DHT22;63793;57.632;18.292;2024-02-26T15:09:43;5.30;99.90
37844;DHT22;63793;57.632;18.292;2024-02-26T15:12:10;5.30;99.90
37844;DHT22;63793;57.632;18.292;2024-02-26T15:14:37;5.30;99.90
37844;DHT22;63793;57.632;18.292;2024-02-26T15:17:05;5.30;99.90
37844;DHT22;63793;57.632;18.292;2024-02-26T15:19:37;5.30;99.90
37844;DHT22;63793;57.632;18.292;2024-02-26T15:22:04;5.30;99.90
37844;DHT22;63793;57.632;18.292;2024-02-26T15:24:31;5.40;99.90
37844;DHT22;63793;57.632;18.292;2024-02-26T15:26:58;5.40;99.90
37844;DHT22;63793;57.632;18.292;2024-02-26T15:29:25;5.30;99.90
37844;DHT22;63793;57.632;18.292;2024-02-26T15:31:53;5.20;99.90
37844;DHT22;63793;57.632;18.292;2024-02-26T15:34:19;5.20;99.90
37844;DHT22;63793;57.632;18.292;2024-02-26T15:36:47;5.20;99.90
37844;DHT22;63793;57.632;18.292;2024-02-26T15:39:14;5.20;99.90
37844;DHT22;63793;57.632;18.292;2024-02-26T15:41:40;5.10;99.90